createdAt,value
2017-09-15T09:27:44.913Z,99.99
2017-09-15T09:28:54.075Z,99.99
2017-09-15T09:30:02.905Z,99.99
2017-09-15T09:31:11.749Z,99.99
2017-09-15T09:32:20.694Z,99.99
2017-09-15T09:33:29.535Z,99.99
2017-09-15T09:34:38.378Z,99.99
2017-09-15T09:35:47.212Z,99.99
2017-09-15T09:36:56.213Z,99.99
2017-09-15T09:38:05.050Z,99.99
2017-09-15T09:39:13.885Z,99.99
2017-09-15T09:40:22.729Z,99.99
2017-09-15T09:41:31.600Z,99.99
2017-09-15T09:42:41.085Z,99.99
2017-09-15T09:43:50.355Z,99.99
2017-09-15T09:44:59.967Z,99.99
2017-09-15T09:46:09.314Z,99.99
2017-09-15T09:47:18.385Z,99.99
2017-09-15T09:48:27.872Z,99.99
2017-09-15T09:49:37.157Z,99.99
2017-09-15T09:50:46.481Z,99.99
2017-09-15T09:51:55.324Z,99.99
2017-09-15T09:53:04.154Z,99.99
2017-09-15T09:54:13.429Z,99.99
2017-09-15T09:55:22.854Z,99.99
2017-09-15T09:56:31.692Z,99.99
2017-09-15T09:57:40.529Z,99.99
2017-09-15T09:58:49.364Z,99.99
2017-09-15T09:59:58.204Z,99.99
2017-09-15T10:01:07.038Z,99.99
2017-09-15T10:02:15.879Z,99.99
2017-09-15T10:03:24.718Z,99.99
2017-09-15T10:04:33.550Z,99.99
2017-09-15T10:05:42.391Z,99.99
2017-09-15T10:06:51.228Z,99.99
2017-09-15T10:08:00.065Z,99.99
2017-09-15T10:09:08.901Z,99.99
2017-09-15T10:10:18.063Z,99.99
2017-09-15T10:11:26.903Z,99.99
2017-09-15T10:12:35.763Z,99.99
2017-09-15T10:13:44.604Z,99.99
2017-09-15T10:14:53.440Z,99.99
2017-09-15T10:16:02.278Z,99.99
2017-09-15T10:17:11.109Z,99.99
2017-09-15T10:18:19.945Z,99.99
2017-09-15T10:19:28.785Z,99.99
2017-09-15T10:20:37.627Z,99.99
2017-09-15T10:21:46.787Z,99.99
2017-09-15T10:22:55.627Z,99.99
2017-09-15T10:24:04.462Z,99.99
2017-09-15T10:25:13.295Z,99.99
2017-09-15T10:26:22.132Z,99.99
2017-09-15T10:27:30.970Z,99.99
2017-09-15T10:28:39.813Z,99.99
2017-09-15T10:29:48.971Z,99.99
2017-09-15T10:30:57.809Z,99.99
2017-09-15T10:32:06.643Z,99.99
2017-09-15T10:33:15.803Z,99.99
2017-09-15T10:34:24.649Z,99.99
2017-09-15T10:35:33.485Z,99.99
2017-09-15T10:36:42.320Z,99.99
2017-09-15T10:37:51.153Z,99.99
2017-09-15T10:38:59.990Z,99.99
2017-09-15T10:40:08.827Z,99.99
2017-09-15T10:41:17.666Z,99.99
2017-09-15T10:42:26.501Z,99.99
2017-09-15T10:43:35.333Z,99.99
2017-09-15T10:44:44.175Z,99.99
2017-09-15T10:45:53.007Z,99.99
2017-09-15T10:47:01.848Z,99.99
2017-09-15T10:48:10.686Z,99.99
2017-09-15T10:49:19.526Z,99.99
2017-09-15T10:50:28.356Z,99.99
2017-09-15T10:51:37.198Z,99.99
2017-09-15T10:52:46.035Z,99.99
2017-09-15T10:53:54.875Z,99.99
2017-09-15T10:55:03.713Z,99.99
2017-09-15T10:56:12.546Z,99.99
2017-09-15T10:57:21.387Z,99.99
2017-09-15T10:58:30.225Z,99.99
2017-09-15T10:59:39.061Z,99.99
2017-09-15T11:00:47.896Z,99.34
2017-09-15T11:01:56.731Z,99.99
2017-09-15T11:03:05.888Z,99.99
2017-09-15T11:04:14.725Z,99.99
2017-09-15T11:05:23.565Z,99.99
2017-09-15T11:06:32.420Z,99.99
2017-09-15T11:07:41.237Z,99.99
2017-09-15T11:08:50.075Z,99.99
2017-09-15T11:09:58.912Z,99.99
2017-09-15T11:11:07.751Z,99.96
2017-09-15T11:12:16.585Z,99.99
2017-09-15T11:13:25.422Z,99.99
2017-09-15T11:14:34.254Z,99.99
2017-09-15T11:15:43.097Z,99.99
2017-09-15T11:16:51.930Z,99.58
2017-09-15T11:18:00.768Z,99.19
2017-09-15T11:19:09.607Z,99.68
2017-09-15T11:20:18.443Z,95.75
2017-09-15T11:21:27.282Z,94.89
2017-09-15T11:22:36.122Z,96.32
2017-09-15T11:23:44.958Z,96.22
2017-09-15T11:24:53.800Z,96.03
2017-09-15T11:26:02.635Z,96.42
2017-09-15T11:27:11.471Z,96.22
2017-09-15T11:28:20.310Z,96.94
2017-09-15T11:29:29.147Z,94.74
2017-09-15T11:30:37.992Z,95.51
2017-09-15T11:31:46.832Z,93.88
2017-09-15T11:32:55.672Z,91.57
2017-09-15T11:34:04.826Z,94.45
2017-09-15T11:35:13.664Z,92.82
2017-09-15T11:36:22.503Z,92.24
2017-09-15T11:37:31.340Z,91.28
2017-09-15T11:38:40.186Z,90.71
2017-09-15T11:39:49.020Z,91.48
2017-09-15T11:40:57.853Z,91.19
2017-09-15T11:42:06.690Z,93.68
2017-09-15T11:43:15.523Z,93.88
2017-09-15T11:44:24.364Z,92.54
2017-09-15T11:45:33.198Z,92.24
2017-09-15T11:46:42.363Z,92.34
2017-09-15T11:47:51.194Z,94.35
2017-09-15T11:49:00.040Z,95.51
2017-09-15T11:50:08.882Z,96.66
2017-09-15T11:51:17.718Z,93.68
2017-09-15T11:52:26.557Z,92.63
2017-09-15T11:53:35.389Z,92.96
2017-09-15T11:54:44.229Z,93.44
2017-09-15T11:55:53.064Z,91.62
2017-09-15T11:57:01.908Z,92.68
2017-09-15T11:58:10.744Z,87.49
2017-09-15T11:59:19.585Z,87.49
2017-09-15T12:00:28.427Z,87.3
2017-09-15T12:01:37.256Z,87.78
2017-09-15T12:02:46.093Z,90.56
2017-09-15T12:03:54.928Z,91.62
2017-09-15T12:05:03.767Z,93.35
2017-09-15T12:06:12.603Z,93.44
2017-09-15T12:07:21.441Z,92.68
2017-09-15T12:08:30.273Z,91.62
2017-09-15T12:09:39.113Z,92.39
2017-09-15T12:10:47.952Z,93.35
2017-09-15T12:11:56.785Z,93.73
2017-09-15T12:13:05.954Z,94.31
2017-09-15T12:14:14.791Z,94.88
2017-09-15T12:15:23.621Z,92
2017-09-15T12:16:32.462Z,89.61
2017-09-15T12:17:41.308Z,87.4
2017-09-15T12:18:50.145Z,89.41
2017-09-15T12:19:58.980Z,89.41
2017-09-15T12:21:07.818Z,90.56
2017-09-15T12:22:16.650Z,90.37
2017-09-15T12:23:25.496Z,91.05
2017-09-15T12:24:34.330Z,89.99
2017-09-15T12:25:43.165Z,90.28
2017-09-15T12:26:52.009Z,90.56
2017-09-15T12:28:00.845Z,92.1
2017-09-15T12:29:09.679Z,92
2017-09-15T12:30:18.517Z,92.43
2017-09-15T12:31:27.353Z,90.32
2017-09-15T12:32:36.189Z,90.03
2017-09-15T12:33:45.053Z,88.59
2017-09-15T12:34:53.866Z,88.31
2017-09-15T12:36:02.703Z,86.68
2017-09-15T12:37:11.541Z,86.48
2017-09-15T12:38:20.380Z,88.4
2017-09-15T12:39:29.220Z,86.81
2017-09-15T12:40:38.058Z,87.01
2017-09-15T12:41:46.890Z,87.35
2017-09-15T12:42:55.725Z,87.54
2017-09-15T12:44:04.568Z,86.87
2017-09-15T12:45:13.405Z,86
2017-09-15T12:46:22.247Z,86.58
2017-09-15T12:47:31.082Z,87.25
2017-09-15T12:48:39.919Z,87.54
2017-09-15T12:49:49.089Z,88.59
2017-09-15T12:50:57.927Z,88.11
2017-09-15T12:52:06.777Z,88.4
2017-09-15T12:53:15.605Z,87.05
2017-09-15T12:54:24.440Z,84.47
2017-09-15T12:55:33.281Z,83.7
2017-09-15T12:56:42.117Z,84.37
2017-09-15T12:57:50.957Z,83.8
2017-09-15T12:58:59.800Z,83.12
2017-09-15T13:00:08.639Z,81.01
2017-09-15T13:01:17.474Z,80.82
2017-09-15T13:02:26.319Z,81.2
2017-09-15T13:03:35.157Z,82.45
2017-09-15T13:04:43.997Z,83.98
2017-09-15T13:05:52.835Z,83.8
2017-09-15T13:07:01.671Z,84.18
2017-09-15T13:08:10.516Z,83.98
2017-09-15T13:09:19.356Z,84.56
2017-09-15T13:10:28.192Z,85.24
2017-09-15T13:11:37.032Z,85.04
2017-09-15T13:12:45.872Z,85.04
2017-09-15T13:13:54.723Z,84.75
2017-09-15T13:15:03.545Z,83.31
2017-09-15T13:16:12.385Z,81.49
2017-09-15T13:17:21.223Z,81.1
2017-09-15T13:18:30.060Z,80.91
2017-09-15T13:19:38.898Z,81.3
2017-09-15T13:20:47.738Z,80.63
2017-09-15T13:21:56.574Z,77.36
2017-09-15T13:23:05.416Z,76.4
2017-09-15T13:24:14.255Z,76.98
2017-09-15T13:25:23.091Z,78.42
2017-09-15T13:26:31.929Z,78.9
2017-09-15T13:27:41.086Z,78.99
2017-09-15T13:28:49.930Z,78.32
2017-09-15T13:29:58.768Z,76.88
2017-09-15T13:31:07.609Z,76.98
2017-09-15T13:32:16.446Z,76.12
2017-09-15T13:33:25.287Z,75.25
2017-09-15T13:34:34.124Z,75.06
2017-09-15T13:35:42.963Z,74.39
2017-09-15T13:36:51.801Z,75.15
2017-09-15T13:38:00.638Z,74.62
2017-09-15T13:39:09.476Z,74.33
2017-09-15T13:40:18.310Z,73.75
2017-09-15T13:41:27.152Z,73.33
2017-09-15T13:42:35.984Z,72.41
2017-09-15T13:43:44.830Z,72.37
2017-09-15T13:44:53.663Z,72.6
2017-09-15T13:46:02.506Z,72.22
2017-09-15T13:47:11.346Z,71.41
2017-09-15T13:48:20.184Z,71.22
2017-09-15T13:49:29.024Z,71.03
2017-09-15T13:50:37.860Z,71.22
2017-09-15T13:51:46.700Z,71.31
2017-09-15T13:52:55.536Z,70.36
2017-09-15T13:54:04.371Z,69.97
2017-09-15T13:55:13.214Z,70.26
2017-09-15T13:56:22.044Z,70.55
2017-09-15T13:57:31.211Z,69.11
2017-09-15T13:58:40.377Z,69.3
2017-09-15T13:59:49.214Z,69.01
2017-09-15T14:00:58.046Z,68.34
2017-09-15T14:02:06.882Z,68.63
2017-09-15T14:03:16.047Z,68.05
2017-09-15T14:04:24.887Z,66.8
2017-09-15T14:05:33.728Z,66.8
2017-09-15T14:06:42.563Z,67.47
2017-09-15T14:07:51.397Z,68.24
2017-09-15T14:09:00.237Z,68.15
2017-09-15T14:10:09.075Z,68.44
2017-09-15T14:11:17.915Z,69.01
2017-09-15T14:12:26.755Z,69.01
2017-09-15T14:13:35.592Z,68.5
2017-09-15T14:14:44.425Z,68.15
2017-09-15T14:15:53.268Z,68.15
2017-09-15T14:17:02.110Z,68.53
2017-09-15T14:18:10.948Z,68.88
2017-09-15T14:19:19.782Z,69.07
2017-09-15T14:20:28.619Z,69.26
2017-09-15T14:21:37.458Z,69.26
2017-09-15T14:22:46.298Z,69.36
2017-09-15T14:23:55.139Z,69.17
2017-09-15T14:25:03.972Z,70.42
2017-09-15T14:26:13.012Z,70.61
2017-09-15T14:27:21.850Z,70.42
2017-09-15T14:28:30.683Z,70.51
2017-09-15T14:29:39.524Z,71.09
2017-09-15T14:30:48.364Z,71.47
2017-09-15T14:31:57.199Z,71.95
2017-09-15T14:33:06.040Z,73.26
2017-09-15T14:34:14.870Z,75.6
2017-09-15T14:35:23.708Z,85.25
2017-09-15T14:36:32.547Z,91.77
2017-09-15T14:37:41.583Z,99.99
2017-09-15T14:38:50.748Z,99.99
2017-09-15T14:39:59.587Z,99.99
2017-09-15T14:41:08.425Z,99.99
2017-09-15T14:42:17.261Z,99.99
2017-09-15T14:43:26.427Z,99.99
2017-09-15T14:44:35.274Z,99.99
2017-09-15T14:45:44.108Z,99.99
2017-09-15T14:46:52.949Z,99.99
2017-09-15T14:48:01.787Z,99.99
2017-09-15T14:49:10.627Z,99.99
2017-09-15T14:50:19.459Z,99.99
2017-09-15T14:51:28.297Z,99.99
2017-09-15T14:52:37.136Z,99.99
2017-09-15T14:53:45.972Z,99.99
2017-09-15T14:54:54.806Z,99.99
2017-09-15T14:56:03.642Z,99.99
2017-09-15T14:57:12.479Z,99.99
2017-09-15T14:58:21.316Z,99.99
2017-09-15T14:59:30.153Z,99.99
2017-09-15T15:00:39.641Z,99.99
2017-09-15T15:01:48.473Z,99.99
2017-09-15T15:02:57.313Z,99.99
2017-09-15T15:04:06.142Z,99.99
2017-09-15T15:05:14.984Z,99.99
2017-09-15T15:06:23.817Z,99.99
2017-09-15T15:07:32.648Z,99.99
2017-09-15T15:08:41.484Z,99.99
2017-09-15T15:09:50.323Z,99.99
2017-09-15T15:10:59.159Z,99.99
2017-09-15T15:12:07.999Z,99.99
2017-09-15T15:13:16.835Z,99.99
2017-09-15T15:14:25.669Z,99.99
2017-09-15T15:15:34.505Z,99.99
2017-09-15T15:16:43.344Z,99.99
2017-09-15T15:17:52.181Z,99.99
2017-09-15T15:19:01.020Z,99.99
2017-09-15T15:20:09.856Z,99.99
2017-09-15T15:21:18.691Z,99.99
2017-09-15T15:22:27.526Z,99.99
2017-09-15T15:23:36.364Z,99.99
2017-09-15T15:24:45.198Z,99.99
2017-09-15T15:25:54.037Z,99.99
2017-09-15T15:27:02.872Z,99.99
2017-09-15T15:28:11.709Z,99.99
2017-09-15T15:29:20.865Z,99.99
2017-09-15T15:30:29.700Z,99.99
2017-09-15T15:31:38.535Z,99.99
2017-09-15T15:32:47.380Z,99.99
2017-09-15T15:33:56.211Z,99.99
2017-09-15T15:35:05.046Z,99.99
2017-09-15T15:36:13.882Z,99.99
2017-09-15T15:37:22.718Z,99.99
2017-09-15T15:38:31.880Z,99.99
2017-09-15T15:39:40.712Z,99.99
2017-09-15T15:40:49.548Z,99.99
2017-09-15T15:41:58.389Z,99.99
2017-09-15T15:43:07.221Z,99.99
2017-09-15T15:44:16.056Z,99.99
2017-09-15T15:45:24.890Z,99.99
2017-09-15T15:46:33.726Z,99.99
2017-09-15T15:47:42.563Z,99.99
2017-09-15T15:48:51.402Z,99.99
2017-09-15T15:50:00.236Z,99.99
2017-09-15T15:51:09.071Z,99.99
2017-09-15T15:52:17.906Z,99.99
2017-09-15T15:53:26.743Z,99.99
2017-09-15T15:54:35.582Z,99.99
2017-09-15T15:55:44.424Z,99.99
2017-09-15T15:56:53.254Z,99.99
2017-09-15T15:58:02.087Z,99.99
2017-09-15T15:59:10.926Z,99.99
2017-09-15T16:00:19.763Z,99.99
2017-09-15T16:01:28.598Z,99.99
2017-09-15T16:02:37.441Z,99.99
2017-09-15T16:03:46.269Z,99.99
2017-09-15T16:04:55.105Z,99.99
2017-09-15T16:06:03.945Z,99.99
2017-09-15T16:07:12.785Z,99.99
2017-09-15T16:08:21.617Z,99.99
2017-09-15T16:09:30.452Z,99.99
2017-09-15T16:10:39.288Z,99.99
2017-09-15T16:11:48.127Z,99.99
2017-09-15T16:12:56.963Z,99.99
2017-09-15T16:14:05.800Z,99.99
2017-09-15T16:15:14.637Z,99.99
2017-09-15T16:16:23.475Z,99.99
2017-09-15T16:17:32.305Z,99.99
2017-09-15T16:18:41.140Z,99.99
2017-09-15T16:19:50.633Z,99.99
2017-09-15T16:20:59.472Z,99.99
2017-09-15T16:22:08.306Z,99.99
2017-09-15T16:23:17.146Z,99.99
2017-09-15T16:24:25.973Z,99.99
2017-09-15T16:25:34.809Z,99.99
2017-09-15T16:26:43.646Z,99.99
2017-09-15T16:27:52.488Z,99.99
2017-09-15T16:29:01.321Z,99.99
2017-09-15T16:30:10.156Z,99.99
2017-09-15T16:31:18.993Z,99.99
2017-09-15T16:32:27.826Z,99.99
2017-09-15T16:33:36.664Z,99.99
2017-09-15T16:34:45.497Z,99.99
2017-09-15T16:35:54.329Z,99.99
2017-09-15T16:37:03.167Z,99.99
2017-09-15T16:38:12.002Z,99.99
2017-09-15T16:39:20.842Z,99.99
2017-09-15T16:40:29.673Z,99.99
2017-09-15T16:41:38.511Z,99.99
2017-09-15T16:42:47.340Z,99.99
2017-09-15T16:43:56.176Z,99.99
2017-09-15T16:45:05.013Z,99.99
2017-09-15T16:46:13.850Z,99.99
2017-09-15T16:47:22.688Z,99.99
2017-09-15T16:48:31.524Z,99.99
2017-09-15T16:49:40.359Z,99.99
2017-09-15T16:50:49.201Z,99.99
2017-09-15T16:51:58.031Z,99.99
2017-09-15T16:53:06.870Z,99.99
2017-09-15T16:54:15.702Z,99.99
2017-09-15T16:55:24.543Z,99.99
2017-09-15T16:56:33.372Z,99.99
2017-09-15T16:57:42.213Z,99.99
2017-09-15T16:58:51.051Z,99.99
2017-09-15T16:59:59.886Z,99.99
2017-09-15T17:01:08.728Z,99.99
2017-09-15T17:02:17.563Z,99.99
2017-09-15T17:03:26.397Z,99.99
2017-09-15T17:04:35.227Z,99.99
2017-09-15T17:05:44.064Z,99.99
2017-09-15T17:06:52.901Z,99.99
2017-09-15T17:08:02.063Z,99.99
2017-09-15T17:09:10.915Z,99.99
2017-09-15T17:10:19.748Z,99.99
2017-09-15T17:11:28.906Z,99.99
2017-09-15T17:12:37.739Z,99.99
2017-09-15T17:13:46.573Z,99.99
2017-09-15T17:14:55.411Z,99.99
2017-09-15T17:16:04.245Z,99.99
2017-09-15T17:17:13.082Z,99.99
2017-09-15T17:18:21.916Z,99.99
2017-09-15T17:19:30.757Z,99.99
2017-09-15T17:20:39.592Z,99.99
2017-09-15T17:21:48.431Z,99.99
2017-09-15T17:22:57.266Z,99.99
2017-09-15T17:24:06.104Z,99.99
2017-09-15T17:25:14.939Z,99.99
2017-09-15T17:26:23.777Z,99.99
2017-09-15T17:27:32.614Z,99.99
2017-09-15T17:28:41.460Z,99.99
2017-09-15T17:29:50.291Z,99.99
2017-09-15T17:30:59.125Z,99.99
2017-09-15T17:32:07.968Z,99.99
2017-09-15T17:33:16.802Z,99.99
2017-09-15T17:34:25.632Z,99.99
2017-09-15T17:35:34.470Z,99.99
2017-09-15T17:36:43.326Z,99.99
2017-09-15T17:37:52.144Z,99.99
2017-09-15T17:39:00.981Z,99.99
2017-09-15T17:40:09.816Z,99.99
2017-09-15T17:41:18.648Z,99.99
2017-09-15T17:42:27.483Z,99.99
2017-09-15T17:43:36.314Z,99.99
2017-09-15T17:44:45.151Z,99.99
2017-09-15T17:45:53.990Z,99.99
2017-09-15T17:47:02.825Z,99.99
2017-09-15T17:48:11.659Z,99.99
2017-09-15T17:49:20.502Z,99.99
2017-09-15T17:50:29.336Z,99.99
2017-09-15T17:51:38.174Z,99.99
2017-09-15T17:52:47.011Z,99.99
2017-09-15T17:53:55.842Z,99.99
2017-09-15T17:55:04.678Z,99.99
2017-09-15T17:56:13.517Z,99.99
2017-09-15T17:57:22.358Z,99.99
2017-09-15T17:58:31.193Z,99.99
2017-09-15T17:59:40.028Z,99.99
2017-09-15T18:00:48.858Z,99.99
2017-09-15T18:01:57.693Z,99.99
2017-09-15T18:03:06.531Z,99.99
2017-09-15T18:04:15.363Z,99.99
2017-09-15T18:05:24.201Z,99.99
2017-09-15T18:06:33.040Z,99.99
2017-09-15T18:07:41.874Z,99.99
2017-09-15T18:08:50.707Z,99.99
2017-09-15T18:09:59.549Z,99.99
2017-09-15T18:11:08.381Z,99.99
2017-09-15T18:12:17.216Z,99.99
2017-09-15T18:13:26.049Z,99.99
2017-09-15T18:14:34.896Z,99.99
2017-09-15T18:15:43.733Z,99.99
2017-09-15T18:16:52.575Z,99.99
2017-09-15T18:18:01.412Z,99.99
2017-09-15T18:19:10.244Z,99.99
2017-09-15T18:20:19.078Z,99.99
2017-09-15T18:21:27.922Z,99.99
2017-09-15T18:22:36.756Z,99.99
2017-09-15T18:23:45.594Z,99.99
2017-09-15T18:24:54.428Z,99.99
2017-09-15T18:26:03.261Z,99.99
2017-09-15T18:27:12.101Z,99.99
2017-09-15T18:28:20.932Z,99.99
2017-09-15T18:29:29.771Z,99.99
2017-09-15T18:30:38.602Z,99.99
2017-09-15T18:31:47.442Z,99.99
2017-09-15T18:32:56.276Z,99.99
2017-09-15T18:34:05.110Z,99.99
2017-09-15T18:35:13.949Z,99.99
2017-09-15T18:36:22.781Z,99.99
2017-09-15T18:37:31.618Z,99.99
2017-09-15T18:38:40.453Z,99.99
2017-09-15T18:39:49.613Z,99.99
2017-09-15T18:40:58.451Z,99.99
2017-09-15T18:42:07.290Z,99.99
2017-09-15T18:43:16.123Z,99.99
2017-09-15T18:44:24.957Z,99.99
2017-09-15T18:45:33.796Z,99.99
2017-09-15T18:46:42.627Z,99.99
2017-09-15T18:47:51.463Z,99.99
2017-09-15T18:49:00.298Z,99.99
2017-09-15T18:50:09.132Z,99.99
2017-09-15T18:51:17.968Z,99.99
2017-09-15T18:52:27.140Z,99.99
2017-09-15T18:53:35.977Z,99.99
2017-09-15T18:54:44.806Z,99.99
2017-09-15T18:55:53.642Z,99.99
2017-09-15T18:57:02.477Z,99.99
2017-09-15T18:58:11.639Z,99.99
2017-09-15T18:59:20.482Z,99.99
2017-09-15T19:00:29.639Z,99.99
2017-09-15T19:01:38.474Z,99.99
2017-09-15T19:02:47.312Z,99.99
2017-09-15T19:03:56.145Z,99.99
2017-09-15T19:05:04.987Z,99.99
2017-09-15T19:06:13.821Z,99.99
2017-09-15T19:07:22.659Z,99.99
2017-09-15T19:08:31.506Z,99.99
2017-09-15T19:09:40.346Z,99.99
2017-09-15T19:10:49.186Z,99.99
2017-09-15T19:11:58.022Z,99.99
2017-09-15T19:13:06.858Z,99.99
2017-09-15T19:14:15.687Z,99.99
2017-09-15T19:15:24.525Z,99.99
2017-09-15T19:16:33.364Z,99.99
2017-09-15T19:17:42.201Z,99.99
2017-09-15T19:18:51.040Z,99.99
2017-09-15T19:19:59.873Z,99.99
2017-09-15T19:21:08.706Z,99.99
2017-09-15T19:22:17.546Z,99.99
2017-09-15T19:23:26.381Z,99.99
2017-09-15T19:24:35.225Z,99.99
2017-09-15T19:25:44.059Z,99.99
2017-09-15T19:26:52.895Z,99.99
2017-09-15T19:28:01.739Z,99.99
2017-09-15T19:29:10.577Z,99.99
2017-09-15T19:30:19.413Z,99.99
2017-09-15T19:31:28.246Z,99.99
2017-09-15T19:32:37.085Z,99.99
2017-09-15T19:33:45.918Z,99.99
2017-09-15T19:34:54.757Z,99.99
2017-09-15T19:36:03.597Z,99.99
2017-09-15T19:37:12.432Z,99.99
2017-09-15T19:38:21.260Z,99.99
2017-09-15T19:39:30.091Z,99.99
2017-09-15T19:40:39.250Z,99.99
2017-09-15T19:41:48.089Z,99.99
2017-09-15T19:42:56.924Z,99.99
2017-09-15T19:44:05.758Z,99.99
2017-09-15T19:45:14.591Z,99.99
2017-09-15T19:46:23.431Z,99.99
2017-09-15T19:47:32.273Z,99.99
2017-09-15T19:48:41.108Z,99.99
2017-09-15T19:49:49.943Z,99.99
2017-09-15T19:50:58.776Z,99.99
2017-09-15T19:52:07.613Z,99.99
2017-09-15T19:53:16.451Z,99.99
2017-09-15T19:54:25.295Z,99.99
2017-09-15T19:55:34.457Z,99.99
2017-09-15T19:56:43.296Z,99.99
2017-09-15T19:57:52.132Z,99.99
2017-09-15T19:59:00.966Z,99.99
2017-09-15T20:00:09.808Z,99.99
2017-09-15T20:01:18.641Z,99.99
2017-09-15T20:02:27.472Z,99.99
2017-09-15T20:03:36.304Z,99.99
2017-09-15T20:04:45.143Z,99.99
2017-09-15T20:05:53.984Z,99.99
2017-09-15T20:07:02.820Z,99.99
2017-09-15T20:08:11.655Z,99.99
2017-09-15T20:09:20.486Z,99.99
2017-09-15T20:10:29.325Z,99.99
2017-09-15T20:11:38.159Z,99.99
2017-09-15T20:12:46.994Z,99.99
2017-09-15T20:13:55.831Z,99.99
2017-09-15T20:15:04.666Z,99.99
2017-09-15T20:16:13.500Z,99.99
2017-09-15T20:17:22.341Z,99.99
2017-09-15T20:18:31.184Z,99.99
2017-09-15T20:19:40.347Z,99.99
2017-09-15T20:20:49.184Z,99.99
2017-09-15T20:21:58.030Z,99.99
2017-09-15T20:23:06.868Z,99.99
2017-09-15T20:24:15.702Z,99.99
2017-09-15T20:25:24.537Z,99.99
2017-09-15T20:26:33.372Z,99.99
2017-09-15T20:27:42.208Z,99.99
2017-09-15T20:28:51.041Z,99.99
2017-09-15T20:29:59.879Z,99.99
2017-09-15T20:31:08.716Z,99.99
2017-09-15T20:32:17.581Z,99.99
2017-09-15T20:33:26.397Z,99.99
2017-09-15T20:34:35.227Z,99.99
2017-09-15T20:35:44.065Z,99.99
2017-09-15T20:36:52.899Z,99.99
2017-09-15T20:38:01.731Z,99.99
2017-09-15T20:39:10.577Z,99.99
2017-09-15T20:40:19.411Z,99.99
2017-09-15T20:41:28.248Z,99.99
2017-09-15T20:42:37.086Z,99.99
2017-09-15T20:43:45.925Z,99.99
2017-09-15T20:44:54.757Z,99.99
2017-09-15T20:46:03.592Z,99.99
2017-09-15T20:47:12.428Z,99.99
2017-09-15T20:48:21.266Z,99.99
2017-09-15T20:49:30.106Z,99.99
2017-09-15T20:50:38.940Z,99.99
2017-09-15T20:51:47.778Z,99.99
2017-09-15T20:52:56.615Z,99.99
2017-09-15T20:54:05.446Z,99.99
2017-09-15T20:55:14.279Z,99.99
2017-09-15T20:56:23.117Z,99.99
2017-09-15T20:57:31.955Z,99.99
2017-09-15T20:58:40.789Z,99.99
2017-09-15T20:59:49.632Z,99.99
2017-09-15T21:00:58.795Z,99.99
2017-09-15T21:02:07.630Z,99.99
2017-09-15T21:03:16.467Z,99.99
2017-09-15T21:04:25.295Z,99.99
2017-09-15T21:05:34.131Z,99.99
2017-09-15T21:06:42.974Z,99.99
2017-09-15T21:07:51.815Z,99.99
2017-09-15T21:09:00.646Z,99.99
2017-09-15T21:10:09.488Z,99.99
2017-09-15T21:11:18.319Z,99.99
2017-09-15T21:12:27.158Z,99.99
2017-09-15T21:13:35.989Z,99.99
2017-09-15T21:14:44.825Z,99.99
2017-09-15T21:15:53.663Z,99.99
2017-09-15T21:17:02.499Z,99.99
2017-09-15T21:18:11.337Z,99.99
2017-09-15T21:19:20.173Z,99.99
2017-09-15T21:20:29.009Z,99.99
2017-09-15T21:21:37.841Z,99.99
2017-09-15T21:22:46.676Z,99.99
2017-09-15T21:23:55.833Z,99.99
2017-09-15T21:25:04.669Z,99.99
2017-09-15T21:26:13.510Z,99.99
2017-09-15T21:27:22.343Z,99.99
2017-09-15T21:28:31.177Z,99.99
2017-09-15T21:29:40.022Z,99.99
2017-09-15T21:30:48.853Z,99.99
2017-09-15T21:31:57.690Z,99.99
2017-09-15T21:33:06.525Z,99.99
2017-09-15T21:34:15.689Z,99.99
2017-09-15T21:35:24.876Z,99.99
2017-09-15T21:36:33.714Z,99.99
2017-09-15T21:37:42.880Z,99.99
2017-09-15T21:38:51.715Z,99.99
2017-09-15T21:40:00.553Z,99.99
2017-09-15T21:41:09.384Z,99.99
2017-09-15T21:42:18.223Z,99.99
2017-09-15T21:43:27.056Z,99.99
2017-09-15T21:44:35.894Z,99.99
2017-09-15T21:45:44.731Z,99.99
2017-09-15T21:46:53.569Z,99.99
2017-09-15T21:48:02.407Z,99.99
2017-09-15T21:49:11.562Z,99.99
2017-09-15T21:50:20.403Z,99.99
2017-09-15T21:51:29.235Z,99.99
2017-09-15T21:52:38.074Z,99.99
2017-09-15T21:53:46.911Z,99.99
2017-09-15T21:54:55.749Z,99.99
2017-09-15T21:56:04.578Z,99.99
2017-09-15T21:57:13.415Z,99.99
2017-09-15T21:58:22.255Z,99.99
2017-09-15T21:59:31.091Z,99.99
2017-09-15T22:00:39.926Z,99.99
2017-09-15T22:01:48.762Z,99.99
2017-09-15T22:02:57.597Z,99.99
2017-09-15T22:04:06.430Z,99.99
2017-09-15T22:05:15.267Z,99.99
2017-09-15T22:06:24.104Z,99.99
2017-09-15T22:07:32.942Z,99.99
2017-09-15T22:08:41.778Z,99.99
2017-09-15T22:09:50.612Z,99.99
2017-09-15T22:10:59.450Z,99.99
2017-09-15T22:12:08.288Z,99.99
2017-09-15T22:13:17.122Z,99.99
2017-09-15T22:14:25.956Z,99.99
2017-09-15T22:15:34.795Z,99.99
2017-09-15T22:16:43.632Z,99.99
2017-09-15T22:17:52.468Z,99.99
2017-09-15T22:19:01.306Z,99.99
2017-09-15T22:20:10.155Z,99.99
2017-09-15T22:21:18.993Z,99.99
2017-09-15T22:22:27.829Z,99.99
2017-09-15T22:23:36.668Z,99.99
2017-09-15T22:24:45.506Z,99.99
2017-09-15T22:25:54.342Z,99.99
2017-09-15T22:27:03.179Z,99.99
2017-09-15T22:28:12.015Z,99.99
2017-09-15T22:29:20.852Z,99.99
2017-09-15T22:30:29.683Z,99.99
2017-09-15T22:31:38.521Z,99.99
2017-09-15T22:32:47.492Z,99.99
2017-09-15T22:33:56.326Z,99.99
2017-09-15T22:35:05.158Z,99.99
2017-09-15T22:36:13.992Z,99.99
2017-09-15T22:37:22.938Z,99.99
2017-09-15T22:38:31.776Z,99.99
2017-09-15T22:39:41.019Z,99.99
2017-09-15T22:40:49.850Z,99.99
2017-09-15T22:41:58.684Z,99.99
2017-09-15T22:43:07.521Z,99.99
2017-09-15T22:44:16.683Z,99.99
2017-09-15T22:45:25.589Z,99.99
2017-09-15T22:46:34.426Z,99.99
2017-09-15T22:47:43.346Z,99.99
2017-09-15T22:48:52.495Z,99.99
2017-09-15T22:50:01.335Z,99.99
2017-09-15T22:51:10.169Z,99.99
2017-09-15T22:52:19.104Z,99.99
2017-09-15T22:53:28.181Z,99.99
2017-09-15T22:54:37.014Z,99.99
2017-09-15T22:55:45.849Z,99.99
2017-09-15T22:56:54.688Z,99.99
2017-09-15T22:58:03.999Z,99.99
2017-09-15T22:59:13.304Z,99.99
2017-09-15T23:00:23.591Z,99.99
2017-09-15T23:01:32.531Z,99.99
2017-09-15T23:02:41.364Z,99.99
2017-09-15T23:03:50.443Z,99.99
2017-09-15T23:04:59.396Z,99.99
2017-09-15T23:06:08.405Z,99.99
2017-09-15T23:07:17.455Z,99.99
2017-09-15T23:08:26.753Z,99.99
2017-09-15T23:09:35.591Z,99.99
2017-09-15T23:10:44.857Z,99.99
2017-09-15T23:11:53.687Z,99.99
2017-09-15T23:13:02.520Z,99.99
2017-09-15T23:14:11.356Z,99.99
2017-09-15T23:15:20.626Z,99.99
2017-09-15T23:16:30.338Z,99.99
2017-09-15T23:17:39.558Z,99.99
2017-09-15T23:18:48.393Z,99.99
2017-09-15T23:19:57.549Z,99.99
2017-09-15T23:21:06.798Z,99.99
2017-09-15T23:22:15.959Z,99.99
2017-09-15T23:23:25.211Z,99.99
2017-09-15T23:24:34.155Z,99.99
2017-09-15T23:25:43.412Z,99.99
2017-09-15T23:26:52.730Z,99.99
2017-09-15T23:28:01.592Z,99.99
2017-09-15T23:29:10.461Z,99.99
2017-09-15T23:30:19.434Z,99.99
2017-09-15T23:31:28.683Z,99.99
2017-09-15T23:32:37.611Z,99.99
2017-09-15T23:33:46.684Z,99.99
2017-09-15T23:34:55.524Z,99.99
2017-09-15T23:36:04.796Z,99.99
2017-09-15T23:37:13.632Z,99.99
2017-09-15T23:38:23.256Z,99.99
2017-09-15T23:39:32.089Z,99.99
2017-09-15T23:40:40.927Z,99.99
2017-09-15T23:41:49.760Z,99.99
2017-09-15T23:42:58.600Z,99.99
2017-09-15T23:44:07.435Z,99.99
2017-09-15T23:45:16.279Z,99.99
2017-09-15T23:46:25.108Z,99.99
2017-09-15T23:47:33.947Z,99.99
2017-09-15T23:48:42.779Z,99.99
2017-09-15T23:49:51.609Z,99.99
2017-09-15T23:51:00.445Z,99.99
2017-09-15T23:52:09.284Z,99.99
2017-09-15T23:53:18.120Z,99.99
2017-09-15T23:54:26.953Z,99.99
2017-09-15T23:55:35.791Z,99.99
2017-09-15T23:56:44.961Z,99.99
2017-09-15T23:57:53.804Z,99.99
2017-09-15T23:59:02.638Z,99.99
